sensor_id;sensor_type;location;lat;lon;timestamp;P1;durP1;ratioP1;P2;durP2;ratioP2
57341;SDS011;43175;51.002;18.316;2023-02-17T00:02:00;55.20;;;25.60;;
57341;SDS011;43175;51.002;18.316;2023-02-17T00:04:27;55.40;;;26.20;;
57341;SDS011;43175;51.002;18.316;2023-02-17T00:06:53;50.60;;;25.90;;
57341;SDS011;43175;51.002;18.316;2023-02-17T00:09:19;53.00;;;25.70;;
57341;SDS011;43175;51.002;18.316;2023-02-17T00:11:45;47.80;;;24.60;;
57341;SDS011;43175;51.002;18.316;2023-02-17T00:14:11;60.60;;;30.80;;
57341;SDS011;43175;51.002;18.316;2023-02-17T00:16:37;54.20;;;27.50;;
57341;SDS011;43175;51.002;18.316;2023-02-17T00:19:03;50.20;;;24.80;;
57341;SDS011;43175;51.002;18.316;2023-02-17T00:21:48;48.70;;;23.30;;
57341;SDS011;43175;51.002;18.316;2023-02-17T00:24:14;48.40;;;23.70;;
57341;SDS011;43175;51.002;18.316;2023-02-17T00:26:40;46.70;;;23.40;;
57341;SDS011;43175;51.002;18.316;2023-02-17T00:29:06;51.20;;;24.40;;
57341;SDS011;43175;51.002;18.316;2023-02-17T00:31:31;56.50;;;26.40;;
57341;SDS011;43175;51.002;18.316;2023-02-17T00:33:57;49.30;;;23.30;;
57341;SDS011;43175;51.002;18.316;2023-02-17T00:36:22;52.20;;;24.50;;
57341;SDS011;43175;51.002;18.316;2023-02-17T00:38:49;48.70;;;24.00;;
57341;SDS011;43175;51.002;18.316;2023-02-17T00:41:15;50.40;;;24.30;;
57341;SDS011;43175;51.002;18.316;2023-02-17T00:43:41;52.50;;;24.90;;
57341;SDS011;43175;51.002;18.316;2023-02-17T00:46:07;51.50;;;25.90;;
57341;SDS011;43175;51.002;18.316;2023-02-17T00:48:32;55.90;;;28.60;;
57341;SDS011;43175;51.002;18.316;2023-02-17T00:50:58;60.20;;;29.40;;
57341;SDS011;43175;51.002;18.316;2023-02-17T00:53:23;54.50;;;26.10;;
57341;SDS011;43175;51.002;18.316;2023-02-17T00:55:49;49.40;;;24.40;;
57341;SDS011;43175;51.002;18.316;2023-02-17T00:58:14;50.10;;;24.80;;
57341;SDS011;43175;51.002;18.316;2023-02-17T01:00:40;50.70;;;24.60;;
57341;SDS011;43175;51.002;18.316;2023-02-17T01:03:06;50.10;;;24.80;;
57341;SDS011;43175;51.002;18.316;2023-02-17T01:05:32;50.30;;;24.20;;
57341;SDS011;43175;51.002;18.316;2023-02-17T01:08:04;48.00;;;24.90;;
57341;SDS011;43175;51.002;18.316;2023-02-17T01:10:29;49.10;;;23.90;;
57341;SDS011;43175;51.002;18.316;2023-02-17T01:12:54;52.00;;;24.10;;
57341;SDS011;43175;51.002;18.316;2023-02-17T01:15:20;51.30;;;25.10;;
57341;SDS011;43175;51.002;18.316;2023-02-17T01:17:46;49.40;;;23.60;;
57341;SDS011;43175;51.002;18.316;2023-02-17T01:20:11;54.80;;;25.10;;
57341;SDS011;43175;51.002;18.316;2023-02-17T01:22:37;61.00;;;32.80;;
57341;SDS011;43175;51.002;18.316;2023-02-17T01:25:04;53.80;;;27.30;;
57341;SDS011;43175;51.002;18.316;2023-02-17T01:27:29;49.50;;;24.60;;
57341;SDS011;43175;51.002;18.316;2023-02-17T01:29:55;51.70;;;24.50;;
57341;SDS011;43175;51.002;18.316;2023-02-17T01:32:20;49.50;;;24.40;;
57341;SDS011;43175;51.002;18.316;2023-02-17T01:34:46;49.40;;;24.40;;
57341;SDS011;43175;51.002;18.316;2023-02-17T01:37:14;50.60;;;24.40;;
57341;SDS011;43175;51.002;18.316;2023-02-17T01:39:40;50.00;;;24.70;;
57341;SDS011;43175;51.002;18.316;2023-02-17T01:42:10;54.30;;;27.30;;
57341;SDS011;43175;51.002;18.316;2023-02-17T01:47:47;49.60;;;24.00;;
57341;SDS011;43175;51.002;18.316;2023-02-17T01:50:19;48.60;;;24.30;;
57341;SDS011;43175;51.002;18.316;2023-02-17T01:52:48;52.30;;;25.00;;
57341;SDS011;43175;51.002;18.316;2023-02-17T01:55:15;53.90;;;25.90;;
57341;SDS011;43175;51.002;18.316;2023-02-17T01:57:42;56.50;;;27.80;;
57341;SDS011;43175;51.002;18.316;2023-02-17T02:00:09;49.70;;;25.40;;
57341;SDS011;43175;51.002;18.316;2023-02-17T02:02:37;52.40;;;25.10;;
57341;SDS011;43175;51.002;18.316;2023-02-17T02:05:03;51.80;;;25.80;;
57341;SDS011;43175;51.002;18.316;2023-02-17T02:07:30;52.10;;;25.30;;
57341;SDS011;43175;51.002;18.316;2023-02-17T02:09:59;50.00;;;24.80;;
57341;SDS011;43175;51.002;18.316;2023-02-17T02:12:26;49.90;;;24.30;;
57341;SDS011;43175;51.002;18.316;2023-02-17T02:14:56;55.10;;;27.90;;
57341;SDS011;43175;51.002;18.316;2023-02-17T02:17:41;54.30;;;26.10;;
57341;SDS011;43175;51.002;18.316;2023-02-17T02:20:24;53.60;;;24.80;;
57341;SDS011;43175;51.002;18.316;2023-02-17T02:25:43;49.40;;;24.50;;
57341;SDS011;43175;51.002;18.316;2023-02-17T02:31:02;49.60;;;24.80;;
57341;SDS011;43175;51.002;18.316;2023-02-17T02:33:52;48.80;;;24.90;;
57341;SDS011;43175;51.002;18.316;2023-02-17T02:36:28;48.90;;;25.40;;
57341;SDS011;43175;51.002;18.316;2023-02-17T02:39:02;52.30;;;26.40;;
57341;SDS011;43175;51.002;18.316;2023-02-17T02:41:32;51.20;;;25.80;;
57341;SDS011;43175;51.002;18.316;2023-02-17T02:44:01;50.00;;;25.30;;
57341;SDS011;43175;51.002;18.316;2023-02-17T02:46:29;50.40;;;25.70;;
57341;SDS011;43175;51.002;18.316;2023-02-17T02:48:55;47.90;;;23.60;;
57341;SDS011;43175;51.002;18.316;2023-02-17T02:59:35;48.30;;;25.60;;
57341;SDS011;43175;51.002;18.316;2023-02-17T03:02:07;49.10;;;24.30;;
57341;SDS011;43175;51.002;18.316;2023-02-17T03:07:40;46.80;;;23.30;;
57341;SDS011;43175;51.002;18.316;2023-02-17T03:10:14;45.60;;;23.60;;
57341;SDS011;43175;51.002;18.316;2023-02-17T03:12:41;50.90;;;25.10;;
57341;SDS011;43175;51.002;18.316;2023-02-17T03:17:58;44.70;;;23.50;;
57341;SDS011;43175;51.002;18.316;2023-02-17T03:20:26;45.30;;;23.80;;
57341;SDS011;43175;51.002;18.316;2023-02-17T03:22:52;47.60;;;24.60;;
57341;SDS011;43175;51.002;18.316;2023-02-17T03:25:19;48.20;;;24.40;;
57341;SDS011;43175;51.002;18.316;2023-02-17T03:27:44;47.60;;;24.80;;
57341;SDS011;43175;51.002;18.316;2023-02-17T03:30:10;51.60;;;24.00;;
57341;SDS011;43175;51.002;18.316;2023-02-17T03:32:36;46.70;;;24.20;;
57341;SDS011;43175;51.002;18.316;2023-02-17T03:35:02;47.60;;;24.40;;
57341;SDS011;43175;51.002;18.316;2023-02-17T03:37:28;45.60;;;23.30;;
57341;SDS011;43175;51.002;18.316;2023-02-17T03:39:54;46.80;;;24.40;;
57341;SDS011;43175;51.002;18.316;2023-02-17T03:42:19;45.00;;;24.40;;
57341;SDS011;43175;51.002;18.316;2023-02-17T03:44:45;44.40;;;23.60;;
57341;SDS011;43175;51.002;18.316;2023-02-17T03:47:10;47.20;;;25.00;;
57341;SDS011;43175;51.002;18.316;2023-02-17T03:49:36;46.40;;;24.30;;
57341;SDS011;43175;51.002;18.316;2023-02-17T03:52:01;47.30;;;23.80;;
57341;SDS011;43175;51.002;18.316;2023-02-17T03:54:27;47.60;;;24.30;;
57341;SDS011;43175;51.002;18.316;2023-02-17T03:56:52;44.10;;;23.70;;
57341;SDS011;43175;51.002;18.316;2023-02-17T03:59:17;46.70;;;23.80;;
57341;SDS011;43175;51.002;18.316;2023-02-17T04:01:43;45.20;;;24.10;;
57341;SDS011;43175;51.002;18.316;2023-02-17T04:04:08;46.70;;;23.30;;
57341;SDS011;43175;51.002;18.316;2023-02-17T04:06:34;45.90;;;23.90;;
57341;SDS011;43175;51.002;18.316;2023-02-17T04:09:00;45.20;;;23.70;;
57341;SDS011;43175;51.002;18.316;2023-02-17T04:11:25;46.30;;;23.40;;
57341;SDS011;43175;51.002;18.316;2023-02-17T04:13:53;44.20;;;23.70;;
57341;SDS011;43175;51.002;18.316;2023-02-17T04:16:18;47.50;;;24.60;;
57341;SDS011;43175;51.002;18.316;2023-02-17T04:18:44;45.50;;;24.00;;
57341;SDS011;43175;51.002;18.316;2023-02-17T04:21:09;44.80;;;24.40;;
57341;SDS011;43175;51.002;18.316;2023-02-17T04:23:35;44.40;;;23.40;;
57341;SDS011;43175;51.002;18.316;2023-02-17T04:26:02;46.40;;;24.90;;
57341;SDS011;43175;51.002;18.316;2023-02-17T04:28:28;44.90;;;23.20;;
57341;SDS011;43175;51.002;18.316;2023-02-17T04:30:55;48.10;;;25.00;;
57341;SDS011;43175;51.002;18.316;2023-02-17T04:33:22;44.90;;;24.10;;
57341;SDS011;43175;51.002;18.316;2023-02-17T04:35:47;46.40;;;24.90;;
57341;SDS011;43175;51.002;18.316;2023-02-17T04:38:13;45.60;;;23.80;;
57341;SDS011;43175;51.002;18.316;2023-02-17T04:40:39;43.80;;;23.60;;
57341;SDS011;43175;51.002;18.316;2023-02-17T04:43:04;46.00;;;24.40;;
57341;SDS011;43175;51.002;18.316;2023-02-17T04:45:30;46.60;;;24.80;;
57341;SDS011;43175;51.002;18.316;2023-02-17T04:47:56;48.40;;;25.70;;
57341;SDS011;43175;51.002;18.316;2023-02-17T04:50:21;48.30;;;25.10;;
57341;SDS011;43175;51.002;18.316;2023-02-17T04:52:47;46.30;;;23.90;;
57341;SDS011;43175;51.002;18.316;2023-02-17T04:55:12;46.20;;;23.70;;
57341;SDS011;43175;51.002;18.316;2023-02-17T04:57:38;46.70;;;24.50;;
57341;SDS011;43175;51.002;18.316;2023-02-17T05:00:04;48.00;;;24.50;;
57341;SDS011;43175;51.002;18.316;2023-02-17T05:02:31;47.40;;;25.20;;
57341;SDS011;43175;51.002;18.316;2023-02-17T05:04:56;45.40;;;24.10;;
57341;SDS011;43175;51.002;18.316;2023-02-17T05:07:22;44.60;;;23.80;;
57341;SDS011;43175;51.002;18.316;2023-02-17T05:09:48;47.30;;;24.10;;
57341;SDS011;43175;51.002;18.316;2023-02-17T05:12:13;42.00;;;22.50;;
57341;SDS011;43175;51.002;18.316;2023-02-17T05:14:39;48.10;;;24.20;;
57341;SDS011;43175;51.002;18.316;2023-02-17T05:17:04;45.50;;;22.70;;
57341;SDS011;43175;51.002;18.316;2023-02-17T05:19:30;45.30;;;23.60;;
57341;SDS011;43175;51.002;18.316;2023-02-17T05:21:56;45.90;;;23.80;;
57341;SDS011;43175;51.002;18.316;2023-02-17T05:24:21;44.80;;;24.10;;
57341;SDS011;43175;51.002;18.316;2023-02-17T05:26:47;43.80;;;24.30;;
57341;SDS011;43175;51.002;18.316;2023-02-17T05:29:12;45.90;;;23.80;;
57341;SDS011;43175;51.002;18.316;2023-02-17T05:31:38;44.60;;;23.60;;
57341;SDS011;43175;51.002;18.316;2023-02-17T05:34:04;44.40;;;23.80;;
57341;SDS011;43175;51.002;18.316;2023-02-17T05:36:29;41.40;;;23.10;;
57341;SDS011;43175;51.002;18.316;2023-02-17T05:38:55;43.20;;;22.60;;
57341;SDS011;43175;51.002;18.316;2023-02-17T05:41:20;44.60;;;23.50;;
57341;SDS011;43175;51.002;18.316;2023-02-17T05:43:46;48.00;;;23.80;;
57341;SDS011;43175;51.002;18.316;2023-02-17T05:46:12;43.40;;;22.80;;
57341;SDS011;43175;51.002;18.316;2023-02-17T05:48:38;48.40;;;23.50;;
57341;SDS011;43175;51.002;18.316;2023-02-17T05:51:04;46.50;;;24.20;;
57341;SDS011;43175;51.002;18.316;2023-02-17T05:53:30;43.30;;;23.50;;
57341;SDS011;43175;51.002;18.316;2023-02-17T05:55:55;44.10;;;23.30;;
57341;SDS011;43175;51.002;18.316;2023-02-17T05:58:21;44.80;;;23.80;;
57341;SDS011;43175;51.002;18.316;2023-02-17T06:00:46;44.90;;;23.80;;
57341;SDS011;43175;51.002;18.316;2023-02-17T06:03:12;49.50;;;26.10;;
57341;SDS011;43175;51.002;18.316;2023-02-17T06:05:38;44.90;;;25.50;;
57341;SDS011;43175;51.002;18.316;2023-02-17T06:08:04;43.80;;;24.00;;
57341;SDS011;43175;51.002;18.316;2023-02-17T06:10:30;45.50;;;23.10;;
57341;SDS011;43175;51.002;18.316;2023-02-17T06:12:56;43.70;;;24.40;;
57341;SDS011;43175;51.002;18.316;2023-02-17T06:15:21;44.90;;;22.90;;
57341;SDS011;43175;51.002;18.316;2023-02-17T06:17:47;45.70;;;25.10;;
57341;SDS011;43175;51.002;18.316;2023-02-17T06:20:13;45.40;;;25.50;;
57341;SDS011;43175;51.002;18.316;2023-02-17T06:22:38;40.70;;;24.50;;
57341;SDS011;43175;51.002;18.316;2023-02-17T06:25:04;43.90;;;24.30;;
57341;SDS011;43175;51.002;18.316;2023-02-17T06:27:30;44.40;;;25.00;;
57341;SDS011;43175;51.002;18.316;2023-02-17T06:29:55;41.40;;;22.00;;
57341;SDS011;43175;51.002;18.316;2023-02-17T06:32:21;40.70;;;22.30;;
57341;SDS011;43175;51.002;18.316;2023-02-17T06:34:46;44.70;;;23.30;;
57341;SDS011;43175;51.002;18.316;2023-02-17T06:37:12;41.70;;;23.60;;
57341;SDS011;43175;51.002;18.316;2023-02-17T06:39:37;42.70;;;22.70;;
57341;SDS011;43175;51.002;18.316;2023-02-17T06:42:03;43.00;;;23.70;;
57341;SDS011;43175;51.002;18.316;2023-02-17T06:44:28;42.00;;;23.70;;
57341;SDS011;43175;51.002;18.316;2023-02-17T06:46:54;43.10;;;24.70;;
57341;SDS011;43175;51.002;18.316;2023-02-17T06:49:19;43.40;;;25.00;;
57341;SDS011;43175;51.002;18.316;2023-02-17T06:51:44;47.10;;;25.20;;
57341;SDS011;43175;51.002;18.316;2023-02-17T06:54:10;45.70;;;23.30;;
57341;SDS011;43175;51.002;18.316;2023-02-17T06:56:36;46.10;;;24.10;;
57341;SDS011;43175;51.002;18.316;2023-02-17T06:59:02;43.70;;;22.90;;
57341;SDS011;43175;51.002;18.316;2023-02-17T07:01:27;41.60;;;22.80;;
57341;SDS011;43175;51.002;18.316;2023-02-17T07:03:53;43.10;;;23.10;;
57341;SDS011;43175;51.002;18.316;2023-02-17T07:06:20;39.20;;;21.40;;
57341;SDS011;43175;51.002;18.316;2023-02-17T07:08:47;40.10;;;21.60;;
57341;SDS011;43175;51.002;18.316;2023-02-17T07:11:14;40.20;;;22.70;;
57341;SDS011;43175;51.002;18.316;2023-02-17T07:13:40;43.40;;;21.80;;
57341;SDS011;43175;51.002;18.316;2023-02-17T07:16:07;37.30;;;21.20;;
57341;SDS011;43175;51.002;18.316;2023-02-17T07:18:33;38.80;;;21.20;;
57341;SDS011;43175;51.002;18.316;2023-02-17T07:20:59;39.60;;;22.40;;
57341;SDS011;43175;51.002;18.316;2023-02-17T07:23:24;40.80;;;22.20;;
57341;SDS011;43175;51.002;18.316;2023-02-17T07:25:50;38.10;;;21.30;;
57341;SDS011;43175;51.002;18.316;2023-02-17T07:28:16;38.80;;;22.10;;
57341;SDS011;43175;51.002;18.316;2023-02-17T07:30:41;41.10;;;22.70;;
57341;SDS011;43175;51.002;18.316;2023-02-17T07:33:08;40.40;;;21.30;;
57341;SDS011;43175;51.002;18.316;2023-02-17T07:35:34;42.00;;;23.00;;
57341;SDS011;43175;51.002;18.316;2023-02-17T07:38:04;38.30;;;21.50;;
57341;SDS011;43175;51.002;18.316;2023-02-17T07:40:30;38.50;;;21.20;;
57341;SDS011;43175;51.002;18.316;2023-02-17T07:42:55;40.00;;;22.00;;
57341;SDS011;43175;51.002;18.316;2023-02-17T07:45:21;41.80;;;21.80;;
57341;SDS011;43175;51.002;18.316;2023-02-17T07:47:46;40.80;;;23.40;;
57341;SDS011;43175;51.002;18.316;2023-02-17T07:50:12;40.80;;;21.20;;
57341;SDS011;43175;51.002;18.316;2023-02-17T07:52:37;42.10;;;22.40;;
57341;SDS011;43175;51.002;18.316;2023-02-17T07:55:03;41.00;;;23.00;;
57341;SDS011;43175;51.002;18.316;2023-02-17T07:57:29;42.60;;;23.20;;
57341;SDS011;43175;51.002;18.316;2023-02-17T07:59:54;42.00;;;22.50;;
57341;SDS011;43175;51.002;18.316;2023-02-17T08:02:20;41.70;;;23.20;;
57341;SDS011;43175;51.002;18.316;2023-02-17T08:04:45;41.60;;;23.00;;
57341;SDS011;43175;51.002;18.316;2023-02-17T08:07:11;43.60;;;23.00;;
57341;SDS011;43175;51.002;18.316;2023-02-17T08:09:37;41.90;;;22.90;;
57341;SDS011;43175;51.002;18.316;2023-02-17T08:12:21;43.90;;;23.80;;
57341;SDS011;43175;51.002;18.316;2023-02-17T08:15:05;43.00;;;23.40;;
57341;SDS011;43175;51.002;18.316;2023-02-17T08:17:32;44.00;;;23.90;;
57341;SDS011;43175;51.002;18.316;2023-02-17T08:19:58;43.80;;;23.00;;
57341;SDS011;43175;51.002;18.316;2023-02-17T08:22:24;43.20;;;23.40;;
57341;SDS011;43175;51.002;18.316;2023-02-17T08:24:49;44.40;;;22.80;;
57341;SDS011;43175;51.002;18.316;2023-02-17T08:27:15;42.40;;;23.80;;
57341;SDS011;43175;51.002;18.316;2023-02-17T08:29:42;43.90;;;23.20;;
57341;SDS011;43175;51.002;18.316;2023-02-17T08:32:08;43.20;;;21.80;;
57341;SDS011;43175;51.002;18.316;2023-02-17T08:34:34;42.70;;;23.00;;
57341;SDS011;43175;51.002;18.316;2023-02-17T08:36:59;42.40;;;23.10;;
57341;SDS011;43175;51.002;18.316;2023-02-17T08:39:25;44.00;;;22.50;;
57341;SDS011;43175;51.002;18.316;2023-02-17T08:41:51;43.00;;;24.30;;
57341;SDS011;43175;51.002;18.316;2023-02-17T08:44:17;49.40;;;28.30;;
57341;SDS011;43175;51.002;18.316;2023-02-17T08:46:45;44.10;;;25.50;;
57341;SDS011;43175;51.002;18.316;2023-02-17T08:49:12;45.60;;;27.70;;
57341;SDS011;43175;51.002;18.316;2023-02-17T08:51:39;44.30;;;24.70;;
57341;SDS011;43175;51.002;18.316;2023-02-17T08:54:06;44.30;;;24.70;;
57341;SDS011;43175;51.002;18.316;2023-02-17T08:56:32;43.00;;;24.20;;
57341;SDS011;43175;51.002;18.316;2023-02-17T08:58:59;49.00;;;28.60;;
57341;SDS011;43175;51.002;18.316;2023-02-17T09:01:24;45.70;;;25.50;;
57341;SDS011;43175;51.002;18.316;2023-02-17T09:03:51;47.20;;;24.30;;
57341;SDS011;43175;51.002;18.316;2023-02-17T09:06:17;45.50;;;24.40;;
57341;SDS011;43175;51.002;18.316;2023-02-17T09:08:44;43.70;;;25.70;;
57341;SDS011;43175;51.002;18.316;2023-02-17T09:11:10;46.80;;;27.30;;
57341;SDS011;43175;51.002;18.316;2023-02-17T09:13:37;43.70;;;25.20;;
57341;SDS011;43175;51.002;18.316;2023-02-17T09:16:02;45.50;;;25.20;;
57341;SDS011;43175;51.002;18.316;2023-02-17T09:18:28;43.60;;;23.40;;
57341;SDS011;43175;51.002;18.316;2023-02-17T09:20:54;42.70;;;24.10;;
57341;SDS011;43175;51.002;18.316;2023-02-17T09:23:20;43.60;;;23.50;;
57341;SDS011;43175;51.002;18.316;2023-02-17T09:25:45;42.60;;;23.40;;
57341;SDS011;43175;51.002;18.316;2023-02-17T09:28:11;40.70;;;23.10;;
57341;SDS011;43175;51.002;18.316;2023-02-17T09:30:39;41.60;;;22.80;;
57341;SDS011;43175;51.002;18.316;2023-02-17T09:33:04;44.10;;;24.60;;
57341;SDS011;43175;51.002;18.316;2023-02-17T09:35:30;45.20;;;24.60;;
57341;SDS011;43175;51.002;18.316;2023-02-17T09:37:57;42.60;;;23.80;;
57341;SDS011;43175;51.002;18.316;2023-02-17T09:40:27;41.30;;;23.70;;
57341;SDS011;43175;51.002;18.316;2023-02-17T09:43:00;40.40;;;22.60;;
57341;SDS011;43175;51.002;18.316;2023-02-17T09:45:31;38.30;;;21.70;;
57341;SDS011;43175;51.002;18.316;2023-02-17T09:48:00;42.00;;;22.20;;
57341;SDS011;43175;51.002;18.316;2023-02-17T09:50:49;40.20;;;23.50;;
57341;SDS011;43175;51.002;18.316;2023-02-17T09:55:54;37.50;;;21.80;;
57341;SDS011;43175;51.002;18.316;2023-02-17T09:58:38;42.20;;;21.50;;
57341;SDS011;43175;51.002;18.316;2023-02-17T10:01:06;37.40;;;21.70;;
57341;SDS011;43175;51.002;18.316;2023-02-17T10:06:22;42.50;;;23.60;;
57341;SDS011;43175;51.002;18.316;2023-02-17T10:12:00;40.50;;;23.20;;
57341;SDS011;43175;51.002;18.316;2023-02-17T10:14:32;43.00;;;23.80;;
57341;SDS011;43175;51.002;18.316;2023-02-17T10:19:29;41.60;;;23.30;;
57341;SDS011;43175;51.002;18.316;2023-02-17T10:22:07;40.30;;;22.70;;
57341;SDS011;43175;51.002;18.316;2023-02-17T10:24:37;42.30;;;24.60;;
57341;SDS011;43175;51.002;18.316;2023-02-17T10:27:06;38.50;;;22.70;;
57341;SDS011;43175;51.002;18.316;2023-02-17T10:30:10;41.70;;;23.30;;
57341;SDS011;43175;51.002;18.316;2023-02-17T10:35:58;38.60;;;22.30;;
57341;SDS011;43175;51.002;18.316;2023-02-17T10:38:51;39.50;;;22.00;;
57341;SDS011;43175;51.002;18.316;2023-02-17T10:41:20;42.20;;;22.90;;
57341;SDS011;43175;51.002;18.316;2023-02-17T10:43:48;40.40;;;23.20;;
57341;SDS011;43175;51.002;18.316;2023-02-17T10:46:15;40.80;;;23.10;;
57341;SDS011;43175;51.002;18.316;2023-02-17T10:48:45;42.30;;;22.60;;
57341;SDS011;43175;51.002;18.316;2023-02-17T10:51:13;40.90;;;22.60;;
57341;SDS011;43175;51.002;18.316;2023-02-17T10:53:40;41.40;;;22.90;;
57341;SDS011;43175;51.002;18.316;2023-02-17T10:58:48;38.30;;;21.70;;
57341;SDS011;43175;51.002;18.316;2023-02-17T11:01:19;39.70;;;22.90;;
57341;SDS011;43175;51.002;18.316;2023-02-17T11:03:57;43.50;;;23.80;;
57341;SDS011;43175;51.002;18.316;2023-02-17T11:06:37;39.00;;;22.10;;
57341;SDS011;43175;51.002;18.316;2023-02-17T11:09:16;42.80;;;24.30;;
57341;SDS011;43175;51.002;18.316;2023-02-17T11:14:31;36.90;;;21.70;;
57341;SDS011;43175;51.002;18.316;2023-02-17T11:17:12;38.60;;;22.30;;
57341;SDS011;43175;51.002;18.316;2023-02-17T11:19:54;37.50;;;21.40;;
57341;SDS011;43175;51.002;18.316;2023-02-17T11:22:26;37.10;;;22.50;;
57341;SDS011;43175;51.002;18.316;2023-02-17T11:24:59;37.70;;;22.10;;
57341;SDS011;43175;51.002;18.316;2023-02-17T11:27:28;45.80;;;23.30;;
57341;SDS011;43175;51.002;18.316;2023-02-17T11:30:08;31.90;;;19.50;;
57341;SDS011;43175;51.002;18.316;2023-02-17T11:32:38;35.20;;;20.90;;
57341;SDS011;43175;51.002;18.316;2023-02-17T11:35:03;36.20;;;20.70;;
57341;SDS011;43175;51.002;18.316;2023-02-17T11:37:30;37.20;;;20.70;;
57341;SDS011;43175;51.002;18.316;2023-02-17T11:39:57;36.20;;;20.90;;
57341;SDS011;43175;51.002;18.316;2023-02-17T11:42:26;34.00;;;21.30;;
57341;SDS011;43175;51.002;18.316;2023-02-17T11:44:54;32.70;;;20.70;;
57341;SDS011;43175;51.002;18.316;2023-02-17T11:55:21;32.70;;;19.40;;
57341;SDS011;43175;51.002;18.316;2023-02-17T11:58:09;31.80;;;19.50;;
57341;SDS011;43175;51.002;18.316;2023-02-17T12:09:06;32.30;;;19.10;;
57341;SDS011;43175;51.002;18.316;2023-02-17T12:14:31;33.10;;;20.00;;
57341;SDS011;43175;51.002;18.316;2023-02-17T12:31:16;31.60;;;18.10;;
57341;SDS011;43175;51.002;18.316;2023-02-17T12:34:00;30.90;;;17.90;;
57341;SDS011;43175;51.002;18.316;2023-02-17T12:36:30;31.50;;;17.60;;
57341;SDS011;43175;51.002;18.316;2023-02-17T12:39:02;32.70;;;18.00;;
57341;SDS011;43175;51.002;18.316;2023-02-17T12:41:44;28.50;;;17.50;;
57341;SDS011;43175;51.002;18.316;2023-02-17T12:44:17;26.10;;;15.70;;
57341;SDS011;43175;51.002;18.316;2023-02-17T12:46:46;27.00;;;15.70;;
57341;SDS011;43175;51.002;18.316;2023-02-17T12:49:16;30.40;;;16.50;;
57341;SDS011;43175;51.002;18.316;2023-02-17T12:51:48;30.30;;;15.70;;
57341;SDS011;43175;51.002;18.316;2023-02-17T12:56:47;25.40;;;14.60;;
57341;SDS011;43175;51.002;18.316;2023-02-17T12:59:36;25.70;;;13.80;;
57341;SDS011;43175;51.002;18.316;2023-02-17T13:02:04;24.10;;;13.80;;
57341;SDS011;43175;51.002;18.316;2023-02-17T13:04:41;25.20;;;14.40;;
57341;SDS011;43175;51.002;18.316;2023-02-17T13:09:52;24.00;;;13.90;;
57341;SDS011;43175;51.002;18.316;2023-02-17T13:14:48;23.40;;;13.30;;
57341;SDS011;43175;51.002;18.316;2023-02-17T13:17:30;24.00;;;12.40;;
57341;SDS011;43175;51.002;18.316;2023-02-17T13:20:39;23.20;;;12.70;;
57341;SDS011;43175;51.002;18.316;2023-02-17T13:22:49;20.70;;;11.80;;
57341;SDS011;43175;51.002;18.316;2023-02-17T13:25:26;22.30;;;12.20;;
57341;SDS011;43175;51.002;18.316;2023-02-17T13:27:54;21.30;;;11.40;;
57341;SDS011;43175;51.002;18.316;2023-02-17T13:33:05;18.60;;;10.90;;
57341;SDS011;43175;51.002;18.316;2023-02-17T13:35:46;20.10;;;11.30;;
57341;SDS011;43175;51.002;18.316;2023-02-17T13:38:12;19.40;;;10.50;;
57341;SDS011;43175;51.002;18.316;2023-02-17T13:40:50;18.70;;;10.10;;
57341;SDS011;43175;51.002;18.316;2023-02-17T13:43:16;18.80;;;9.70;;
57341;SDS011;43175;51.002;18.316;2023-02-17T13:50:52;18.40;;;10.20;;
57341;SDS011;43175;51.002;18.316;2023-02-17T13:55:47;17.30;;;10.20;;
57341;SDS011;43175;51.002;18.316;2023-02-17T13:58:13;18.20;;;10.80;;
57341;SDS011;43175;51.002;18.316;2023-02-17T14:00:41;20.70;;;12.20;;
57341;SDS011;43175;51.002;18.316;2023-02-17T14:06:17;28.40;;;14.50;;
57341;SDS011;43175;51.002;18.316;2023-02-17T14:09:10;25.80;;;13.80;;
57341;SDS011;43175;51.002;18.316;2023-02-17T14:11:47;25.70;;;14.90;;
57341;SDS011;43175;51.002;18.316;2023-02-17T14:14:13;25.60;;;13.80;;
57341;SDS011;43175;51.002;18.316;2023-02-17T14:16:40;27.00;;;15.00;;
57341;SDS011;43175;51.002;18.316;2023-02-17T14:19:10;30.50;;;16.20;;
57341;SDS011;43175;51.002;18.316;2023-02-17T14:21:39;22.00;;;12.00;;
57341;SDS011;43175;51.002;18.316;2023-02-17T14:24:06;20.20;;;11.40;;
57341;SDS011;43175;51.002;18.316;2023-02-17T14:26:37;19.90;;;11.10;;
57341;SDS011;43175;51.002;18.316;2023-02-17T14:29:08;17.70;;;10.30;;
57341;SDS011;43175;51.002;18.316;2023-02-17T14:31:50;18.40;;;11.10;;
57341;SDS011;43175;51.002;18.316;2023-02-17T14:36:44;19.20;;;11.30;;
57341;SDS011;43175;51.002;18.316;2023-02-17T14:39:12;21.30;;;11.20;;
57341;SDS011;43175;51.002;18.316;2023-02-17T14:41:39;19.80;;;11.80;;
57341;SDS011;43175;51.002;18.316;2023-02-17T14:44:05;23.60;;;12.90;;
57341;SDS011;43175;51.002;18.316;2023-02-17T14:46:31;22.30;;;11.80;;
57341;SDS011;43175;51.002;18.316;2023-02-17T14:48:57;21.10;;;11.00;;
57341;SDS011;43175;51.002;18.316;2023-02-17T14:51:24;20.90;;;11.50;;
57341;SDS011;43175;51.002;18.316;2023-02-17T14:53:55;19.80;;;11.30;;
57341;SDS011;43175;51.002;18.316;2023-02-17T14:56:28;18.10;;;10.20;;
57341;SDS011;43175;51.002;18.316;2023-02-17T14:58:56;19.20;;;10.90;;
57341;SDS011;43175;51.002;18.316;2023-02-17T15:01:22;19.40;;;11.60;;
57341;SDS011;43175;51.002;18.316;2023-02-17T15:03:48;19.20;;;10.70;;
57341;SDS011;43175;51.002;18.316;2023-02-17T15:06:15;20.20;;;11.20;;
57341;SDS011;43175;51.002;18.316;2023-02-17T15:08:43;19.00;;;10.70;;
57341;SDS011;43175;51.002;18.316;2023-02-17T15:11:13;19.40;;;11.00;;
57341;SDS011;43175;51.002;18.316;2023-02-17T15:13:44;17.50;;;10.50;;
57341;SDS011;43175;51.002;18.316;2023-02-17T15:16:10;20.70;;;11.80;;
57341;SDS011;43175;51.002;18.316;2023-02-17T15:18:37;18.50;;;11.40;;
57341;SDS011;43175;51.002;18.316;2023-02-17T15:21:06;18.30;;;10.80;;
57341;SDS011;43175;51.002;18.316;2023-02-17T15:23:41;19.70;;;11.20;;
57341;SDS011;43175;51.002;18.316;2023-02-17T15:26:08;18.50;;;10.40;;
57341;SDS011;43175;51.002;18.316;2023-02-17T15:28:34;18.40;;;10.90;;
57341;SDS011;43175;51.002;18.316;2023-02-17T15:31:00;18.80;;;10.90;;
57341;SDS011;43175;51.002;18.316;2023-02-17T15:33:25;20.30;;;11.50;;
57341;SDS011;43175;51.002;18.316;2023-02-17T15:35:51;20.60;;;12.10;;
57341;SDS011;43175;51.002;18.316;2023-02-17T15:38:18;92.90;;;47.70;;
57341;SDS011;43175;51.002;18.316;2023-02-17T15:40:44;43.90;;;26.50;;
57341;SDS011;43175;51.002;18.316;2023-02-17T15:43:13;27.60;;;16.80;;
57341;SDS011;43175;51.002;18.316;2023-02-17T15:45:41;25.60;;;14.60;;
57341;SDS011;43175;51.002;18.316;2023-02-17T15:48:17;22.60;;;14.10;;
57341;SDS011;43175;51.002;18.316;2023-02-17T15:50:46;23.70;;;14.10;;
57341;SDS011;43175;51.002;18.316;2023-02-17T15:53:11;25.30;;;12.60;;
57341;SDS011;43175;51.002;18.316;2023-02-17T15:55:37;21.90;;;12.60;;